createdAt,value
2023-01-28T00:00:53.742Z,4.15
2023-01-28T00:03:20.503Z,5.30
2023-01-28T00:05:47.173Z,5.35
2023-01-28T00:08:14.677Z,5.15
2023-01-28T00:10:43.112Z,5.40
2023-01-28T00:13:12.690Z,5.25
2023-01-28T00:15:39.360Z,5.13
2023-01-28T00:18:05.951Z,5.25
2023-01-28T00:20:32.708Z,5.20
2023-01-28T00:22:59.358Z,4.82
2023-01-28T00:25:25.996Z,4.85
2023-01-28T00:27:52.633Z,5.68
2023-01-28T00:30:19.546Z,5.13
2023-01-28T00:32:46.152Z,5.05
2023-01-28T00:35:13.739Z,4.55
2023-01-28T00:37:41.351Z,5.50
2023-01-28T00:40:09.957Z,5.30
2023-01-28T00:42:37.553Z,4.97
2023-01-28T00:45:04.724Z,5.65
2023-01-28T00:47:31.456Z,5.50
2023-01-28T00:49:58.426Z,4.82
2023-01-28T00:52:25.684Z,4.72
2023-01-28T00:54:54.445Z,4.57
2023-01-28T00:57:21.084Z,4.47
2023-01-28T00:59:47.797Z,5.03
2023-01-28T01:02:14.576Z,4.65
2023-01-28T01:04:41.420Z,4.07
2023-01-28T01:07:08.145Z,4.28
2023-01-28T01:09:34.860Z,4.40
2023-01-28T01:12:01.611Z,4.13
2023-01-28T01:14:28.433Z,4.45
2023-01-28T01:16:55.062Z,4.07
2023-01-28T01:19:21.745Z,3.53
2023-01-28T01:21:50.519Z,4.43
2023-01-28T01:24:18.070Z,4.10
2023-01-28T01:26:44.929Z,3.50
2023-01-28T01:29:11.686Z,4.30
2023-01-28T01:31:38.858Z,4.35
2023-01-28T01:34:05.591Z,4.13
2023-01-28T01:36:32.601Z,4.43
2023-01-28T01:38:59.236Z,4.25
2023-01-28T01:41:31.178Z,4.22
2023-01-28T01:44:00.936Z,4.47
2023-01-28T01:46:36.279Z,3.70
2023-01-28T01:49:08.905Z,4.38
2023-01-28T01:51:36.531Z,4.15
2023-01-28T01:54:04.722Z,3.63
2023-01-28T01:56:37.043Z,3.55
2023-01-28T01:59:03.853Z,3.50
2023-01-28T02:01:32.599Z,3.38
2023-01-28T02:04:05.038Z,3.17
2023-01-28T02:06:32.422Z,3.20
2023-01-28T02:08:59.261Z,3.08
2023-01-28T02:11:30.618Z,2.75
2023-01-28T02:13:59.455Z,3.00
2023-01-28T02:16:28.033Z,3.00
2023-01-28T02:18:54.695Z,2.83
2023-01-28T02:21:54.646Z,2.97
2023-01-28T02:24:36.408Z,2.65
2023-01-28T02:27:41.116Z,3.00
2023-01-28T02:30:35.602Z,2.90
2023-01-28T02:33:11.334Z,2.90
2023-01-28T02:35:43.107Z,2.70
2023-01-28T02:38:13.194Z,2.67
2023-01-28T02:41:01.323Z,3.15
2023-01-28T02:43:33.323Z,2.80
2023-01-28T02:46:19.224Z,2.97
2023-01-28T02:48:46.953Z,2.88
2023-01-28T02:51:51.174Z,2.83
2023-01-28T02:54:34.002Z,2.35
2023-01-28T02:57:10.654Z,2.95
2023-01-28T03:00:04.104Z,2.72
2023-01-28T03:02:43.087Z,2.92
2023-01-28T03:05:22.432Z,2.75
2023-01-28T03:07:50.599Z,2.63
2023-01-28T03:10:20.553Z,2.88
2023-01-28T03:13:11.115Z,2.60
2023-01-28T03:16:07.714Z,2.80
2023-01-28T03:19:03.793Z,2.53
2023-01-28T03:21:55.684Z,2.53
2023-01-28T03:24:50.972Z,2.80
2023-01-28T03:27:40.287Z,2.80
2023-01-28T03:30:39.673Z,2.67
2023-01-28T03:33:30.516Z,2.40
2023-01-28T03:36:15.762Z,3.00
2023-01-28T03:38:43.604Z,2.90
2023-01-28T03:41:24.313Z,2.70
2023-01-28T03:43:53.680Z,2.60
2023-01-28T03:46:20.473Z,3.38
2023-01-28T03:48:47.612Z,2.75
2023-01-28T03:51:15.828Z,3.00
2023-01-28T03:53:42.476Z,2.88
2023-01-28T03:56:18.093Z,3.10
2023-01-28T03:58:54.066Z,2.67
2023-01-28T04:01:21.108Z,2.75
2023-01-28T04:03:47.984Z,2.95
2023-01-28T04:06:18.749Z,2.70
2023-01-28T04:08:59.300Z,2.67
2023-01-28T04:11:38.099Z,2.72
2023-01-28T04:14:06.340Z,2.53
2023-01-28T04:16:54.903Z,2.53
2023-01-28T04:19:24.510Z,2.90
2023-01-28T04:21:55.255Z,2.90
2023-01-28T04:24:22.960Z,2.63
2023-01-28T04:26:50.240Z,2.88
2023-01-28T04:29:16.913Z,2.58
2023-01-28T04:31:44.068Z,2.67
2023-01-28T04:34:35.416Z,2.60
2023-01-28T04:37:15.197Z,2.88
2023-01-28T04:39:45.318Z,2.70
2023-01-28T04:42:34.905Z,2.57
2023-01-28T04:45:24.525Z,2.90
2023-01-28T04:47:58.751Z,2.42
2023-01-28T04:50:44.590Z,3.03
2023-01-28T04:53:31.013Z,2.65
2023-01-28T04:55:58.944Z,2.47
2023-01-28T04:58:28.221Z,2.80
2023-01-28T05:01:00.666Z,2.08
2023-01-28T05:03:28.150Z,3.10
2023-01-28T05:05:56.080Z,2.78
2023-01-28T05:08:42.970Z,2.63
2023-01-28T05:11:10.777Z,2.60
2023-01-28T05:13:38.294Z,2.40
2023-01-28T05:16:07.568Z,2.80
2023-01-28T05:18:34.714Z,2.47
2023-01-28T05:21:16.180Z,2.50
2023-01-28T05:23:43.924Z,2.45
2023-01-28T05:26:10.651Z,2.33
2023-01-28T05:28:38.332Z,2.20
2023-01-28T05:31:06.073Z,2.20
2023-01-28T05:33:33.189Z,2.00
2023-01-28T05:36:00.044Z,2.38
2023-01-28T05:38:27.984Z,2.22
2023-01-28T05:40:55.615Z,2.50
2023-01-28T05:43:22.451Z,1.55
2023-01-28T05:46:03.583Z,1.83
2023-01-28T05:48:45.967Z,1.70
2023-01-28T05:51:31.439Z,1.88
2023-01-28T05:53:59.073Z,1.50
2023-01-28T05:56:25.713Z,1.90
2023-01-28T05:58:52.968Z,1.55
2023-01-28T06:01:20.511Z,1.42
2023-01-28T06:03:51.695Z,1.77
2023-01-28T06:06:18.989Z,1.50
2023-01-28T06:08:46.565Z,2.05
2023-01-28T06:11:19.040Z,1.38
2023-01-28T06:13:46.936Z,2.08
2023-01-28T06:16:26.504Z,1.73
2023-01-28T06:19:08.790Z,1.40
2023-01-28T06:21:35.371Z,1.85
2023-01-28T06:24:02.328Z,1.90
2023-01-28T06:26:30.539Z,1.67
2023-01-28T06:28:57.452Z,1.83
2023-01-28T06:31:24.072Z,2.15
2023-01-28T06:33:50.721Z,1.80
2023-01-28T06:36:17.303Z,1.77
2023-01-28T06:38:44.066Z,1.83
2023-01-28T06:41:10.640Z,1.67
2023-01-28T06:43:37.207Z,2.00
2023-01-28T06:46:03.903Z,1.77
2023-01-28T06:48:30.532Z,1.45
2023-01-28T06:50:57.118Z,1.80
2023-01-28T06:53:23.699Z,1.88
2023-01-28T06:55:50.519Z,1.67
2023-01-28T06:58:17.235Z,1.60
2023-01-28T07:00:43.837Z,1.77
2023-01-28T07:03:10.849Z,1.77
2023-01-28T07:05:37.503Z,1.80
2023-01-28T07:08:04.166Z,1.85
2023-01-28T07:10:30.817Z,1.70
2023-01-28T07:12:57.521Z,1.50
2023-01-28T07:15:24.257Z,1.63
2023-01-28T07:17:50.944Z,1.67
2023-01-28T07:20:18.113Z,1.63
2023-01-28T07:22:45.504Z,1.70
2023-01-28T07:25:13.666Z,1.50
2023-01-28T07:27:40.356Z,1.58
2023-01-28T07:30:07.506Z,1.75
2023-01-28T07:32:34.206Z,1.80
2023-01-28T07:35:00.780Z,1.73
2023-01-28T07:37:27.357Z,1.55
2023-01-28T07:39:54.122Z,1.52
2023-01-28T07:42:20.835Z,1.40
2023-01-28T07:44:47.582Z,1.80
2023-01-28T07:47:14.395Z,1.63
2023-01-28T07:49:41.479Z,1.65
2023-01-28T07:52:09.040Z,2.00
2023-01-28T07:54:35.711Z,1.80
2023-01-28T07:57:09.753Z,1.67
2023-01-28T07:59:36.803Z,1.80
2023-01-28T08:02:04.487Z,1.73
2023-01-28T08:04:31.275Z,1.98
2023-01-28T08:06:58.031Z,1.85
2023-01-28T08:09:24.956Z,1.77
2023-01-28T08:11:52.659Z,1.85
2023-01-28T08:14:19.385Z,2.03
2023-01-28T08:16:46.017Z,2.05
2023-01-28T08:19:12.754Z,1.98
2023-01-28T08:21:39.803Z,1.92
2023-01-28T08:24:06.670Z,1.90
2023-01-28T08:26:33.328Z,2.15
2023-01-28T08:28:59.943Z,2.30
2023-01-28T08:31:27.759Z,2.63
2023-01-28T08:33:54.379Z,2.20
2023-01-28T08:36:21.124Z,2.05
2023-01-28T08:38:54.018Z,1.83
2023-01-28T08:41:23.940Z,1.60
2023-01-28T08:43:50.675Z,1.70
2023-01-28T08:46:17.454Z,2.10
2023-01-28T08:48:44.245Z,1.55
2023-01-28T08:51:10.956Z,1.80
2023-01-28T08:53:37.665Z,1.83
2023-01-28T08:56:04.458Z,1.98
2023-01-28T08:58:31.034Z,1.90
2023-01-28T09:00:57.875Z,2.22
2023-01-28T09:03:24.487Z,2.42
2023-01-28T09:05:51.271Z,2.13
2023-01-28T09:08:17.922Z,1.88
2023-01-28T09:10:44.612Z,1.90
2023-01-28T09:13:14.127Z,2.60
2023-01-28T09:15:41.367Z,2.03
2023-01-28T09:18:08.118Z,2.00
2023-01-28T09:20:34.774Z,1.60
2023-01-28T09:23:01.725Z,1.83
2023-01-28T09:25:28.359Z,1.45
2023-01-28T09:27:55.010Z,1.60
2023-01-28T09:30:21.834Z,1.33
2023-01-28T09:32:55.052Z,1.60
2023-01-28T09:35:22.184Z,1.58
2023-01-28T09:37:48.941Z,1.67
2023-01-28T09:40:17.886Z,1.90
2023-01-28T09:42:56.475Z,1.17
2023-01-28T09:45:43.325Z,1.50
2023-01-28T09:48:15.067Z,1.67
2023-01-28T09:50:44.365Z,1.30
2023-01-28T09:53:23.929Z,1.70
2023-01-28T09:55:55.708Z,1.47
2023-01-28T09:58:22.357Z,1.80
2023-01-28T10:01:14.164Z,1.60
2023-01-28T10:03:43.683Z,1.55
2023-01-28T10:06:21.935Z,1.60
2023-01-28T10:09:12.953Z,1.50
2023-01-28T10:11:58.110Z,1.38
2023-01-28T10:14:33.538Z,1.70
2023-01-28T10:17:05.943Z,1.00
2023-01-28T10:19:50.394Z,1.40
2023-01-28T10:22:20.782Z,1.25
2023-01-28T10:24:53.113Z,1.67
2023-01-28T10:27:22.088Z,1.27
2023-01-28T10:29:50.487Z,1.50
2023-01-28T10:32:36.329Z,1.38
2023-01-28T10:35:03.556Z,1.38
2023-01-28T10:37:37.438Z,1.70
2023-01-28T10:40:05.169Z,1.23
2023-01-28T10:42:34.932Z,1.30
2023-01-28T10:45:21.859Z,1.40
2023-01-28T10:47:53.723Z,1.80
2023-01-28T10:50:27.741Z,1.70
2023-01-28T10:52:55.735Z,1.30
2023-01-28T10:55:22.875Z,1.33
2023-01-28T10:57:49.916Z,1.38
2023-01-28T11:00:27.064Z,1.33
2023-01-28T11:02:54.204Z,1.45
2023-01-28T11:05:29.418Z,1.50
2023-01-28T11:08:16.996Z,1.30
2023-01-28T11:10:44.525Z,1.50
2023-01-28T11:13:19.719Z,1.60
2023-01-28T11:15:47.811Z,1.73
2023-01-28T11:18:25.800Z,1.60
2023-01-28T11:20:56.817Z,1.52
2023-01-28T11:23:26.642Z,1.50
2023-01-28T11:26:01.799Z,1.45
2023-01-28T11:28:28.412Z,1.88
2023-01-28T11:30:56.483Z,1.55
2023-01-28T11:33:34.101Z,1.48
2023-01-28T11:36:14.763Z,2.20
2023-01-28T11:38:58.856Z,1.40
2023-01-28T11:41:29.246Z,1.20
2023-01-28T11:46:40.857Z,1.50
2023-01-28T11:49:17.525Z,1.67
2023-01-28T11:51:55.285Z,1.80
2023-01-28T11:54:40.841Z,1.38
2023-01-28T11:57:27.186Z,1.40
2023-01-28T12:00:19.553Z,1.42
2023-01-28T12:02:53.983Z,1.15
2023-01-28T12:05:29.757Z,1.38
2023-01-28T12:08:34.633Z,1.80
2023-01-28T12:11:50.007Z,1.52
2023-01-28T12:14:43.217Z,1.35
2023-01-28T12:17:32.956Z,1.40
2023-01-28T12:20:18.182Z,1.40
2023-01-28T12:23:22.446Z,1.58
2023-01-28T12:25:55.140Z,1.33
2023-01-28T12:28:52.566Z,1.23
2023-01-28T12:31:38.474Z,1.35
2023-01-28T12:34:23.930Z,0.98
2023-01-28T12:37:19.430Z,1.10
2023-01-28T12:40:11.184Z,1.02
2023-01-28T12:42:42.302Z,1.10
2023-01-28T12:45:16.619Z,1.20
2023-01-28T12:47:49.954Z,0.85
2023-01-28T12:50:30.777Z,1.08
2023-01-28T12:53:01.179Z,0.77
2023-01-28T12:55:38.890Z,0.85
2023-01-28T12:58:07.741Z,0.90
2023-01-28T13:00:41.345Z,0.95
2023-01-28T13:03:38.708Z,0.80
2023-01-28T13:06:13.132Z,0.90
2023-01-28T13:08:39.995Z,1.10
2023-01-28T13:11:12.471Z,1.00
2023-01-28T13:13:42.286Z,1.10
2023-01-28T13:16:10.563Z,1.15
2023-01-28T13:18:40.293Z,0.98
2023-01-28T13:21:25.700Z,1.10
2023-01-28T13:24:05.847Z,1.10
2023-01-28T13:26:50.344Z,1.10
2023-01-28T13:29:26.174Z,1.02
2023-01-28T13:31:55.414Z,0.70
2023-01-28T13:34:33.683Z,1.00
2023-01-28T13:37:23.015Z,1.00
2023-01-28T13:39:52.281Z,1.30
2023-01-28T13:42:27.239Z,1.23
2023-01-28T13:44:54.476Z,0.93
2023-01-28T13:47:29.892Z,1.10
2023-01-28T13:50:05.918Z,0.80
2023-01-28T13:52:36.721Z,0.90
2023-01-28T13:55:12.449Z,0.88
2023-01-28T13:57:44.830Z,0.95
2023-01-28T14:00:37.379Z,0.70
2023-01-28T14:03:31.336Z,1.00
2023-01-28T14:06:24.254Z,1.00
2023-01-28T14:09:20.062Z,0.80
2023-01-28T14:12:12.555Z,0.80
2023-01-28T14:15:00.526Z,0.70
2023-01-28T14:17:48.592Z,0.77
2023-01-28T14:20:37.644Z,1.10
2023-01-28T14:23:06.568Z,0.80
2023-01-28T14:25:37.689Z,1.30
2023-01-28T14:28:06.731Z,0.80
2023-01-28T14:30:43.963Z,1.40
2023-01-28T14:33:11.938Z,0.80
2023-01-28T14:35:40.307Z,1.00
2023-01-28T14:38:08.965Z,1.40
2023-01-28T14:40:38.307Z,1.60
2023-01-28T14:43:08.023Z,1.10
2023-01-28T14:46:04.130Z,1.00
2023-01-28T14:48:51.672Z,1.20
2023-01-28T14:51:39.644Z,1.48
2023-01-28T14:54:18.757Z,1.27
2023-01-28T14:57:12.615Z,1.30
2023-01-28T14:59:41.334Z,1.60
2023-01-28T15:02:18.841Z,1.48
2023-01-28T15:04:45.701Z,1.30
2023-01-28T15:07:16.276Z,1.80
2023-01-28T15:09:43.136Z,1.70
2023-01-28T15:12:10.190Z,1.55
2023-01-28T15:14:36.859Z,1.95
2023-01-28T15:17:03.623Z,1.60
2023-01-28T15:19:32.799Z,1.90
2023-01-28T15:22:05.217Z,1.50
2023-01-28T15:24:34.255Z,1.50
2023-01-28T15:27:01.472Z,1.50
2023-01-28T15:29:36.524Z,1.50
2023-01-28T15:32:04.950Z,1.45
2023-01-28T15:34:32.180Z,1.17
2023-01-28T15:37:01.566Z,1.58
2023-01-28T15:39:29.347Z,1.33
2023-01-28T15:41:59.363Z,1.33
2023-01-28T15:44:37.780Z,1.50
2023-01-28T15:47:14.676Z,1.67
2023-01-28T15:49:47.386Z,1.70
2023-01-28T15:52:14.227Z,1.40
2023-01-28T15:54:43.268Z,1.40
2023-01-28T15:57:24.814Z,1.48
2023-01-28T15:59:51.584Z,1.50
2023-01-28T16:02:21.031Z,1.50
2023-01-28T16:05:07.899Z,1.50
2023-01-28T16:07:44.270Z,1.20
2023-01-28T16:10:20.214Z,1.42
2023-01-28T16:12:54.376Z,1.30
2023-01-28T16:15:21.987Z,1.58
2023-01-28T16:17:51.134Z,1.48
2023-01-28T16:20:29.128Z,1.42
2023-01-28T16:23:01.058Z,1.70
2023-01-28T16:25:30.802Z,2.08
2023-01-28T16:27:59.089Z,1.67
2023-01-28T16:30:26.294Z,1.20
2023-01-28T16:32:53.269Z,1.27
2023-01-28T16:35:26.223Z,1.70
2023-01-28T16:37:52.888Z,1.30
2023-01-28T16:40:22.176Z,1.60
2023-01-28T16:42:49.281Z,1.60
2023-01-28T16:45:23.932Z,1.58
2023-01-28T16:47:52.085Z,2.05
2023-01-28T16:50:21.703Z,1.20
2023-01-28T16:52:49.977Z,1.88
2023-01-28T16:55:19.373Z,1.60
2023-01-28T16:57:48.919Z,1.60
2023-01-28T17:00:23.317Z,1.30
2023-01-28T17:02:51.010Z,1.73
2023-01-28T17:05:19.704Z,1.42
2023-01-28T17:07:49.010Z,1.98
2023-01-28T17:10:16.701Z,1.60
2023-01-28T17:12:44.267Z,1.50
2023-01-28T17:15:11.431Z,1.48
2023-01-28T17:17:38.062Z,1.27
2023-01-28T17:20:06.053Z,1.40
2023-01-28T17:22:32.775Z,1.50
2023-01-28T17:24:59.349Z,2.00
2023-01-28T17:27:25.900Z,1.25
2023-01-28T17:29:53.291Z,1.80
2023-01-28T17:32:19.870Z,1.50
2023-01-28T17:34:49.515Z,1.63
2023-01-28T17:37:16.162Z,1.60
2023-01-28T17:39:42.822Z,1.55
2023-01-28T17:42:09.440Z,1.40
2023-01-28T17:44:36.078Z,1.73
2023-01-28T17:47:02.730Z,1.40
2023-01-28T17:49:29.783Z,1.77
2023-01-28T17:51:56.375Z,1.50
2023-01-28T17:54:24.538Z,1.60
2023-01-28T17:56:51.289Z,1.50
2023-01-28T17:59:17.925Z,1.70
2023-01-28T18:01:44.854Z,1.40
2023-01-28T18:04:12.995Z,1.15
2023-01-28T18:06:39.676Z,1.27
2023-01-28T18:09:07.142Z,1.50
2023-01-28T18:11:33.875Z,1.35
2023-01-28T18:14:00.664Z,1.35
2023-01-28T18:16:27.344Z,1.33
2023-01-28T18:18:53.921Z,1.70
2023-01-28T18:21:52.349Z,1.40
2023-01-28T18:24:21.230Z,1.52
2023-01-28T18:26:47.870Z,1.40
2023-01-28T18:29:16.902Z,1.13
2023-01-28T18:31:44.234Z,1.15
2023-01-28T18:34:10.891Z,1.50
2023-01-28T18:36:37.601Z,1.58
2023-01-28T18:39:04.273Z,1.40
2023-01-28T18:41:30.961Z,1.23
2023-01-28T18:43:57.622Z,1.30
2023-01-28T18:46:24.249Z,1.20
2023-01-28T18:48:50.995Z,1.63
2023-01-28T18:51:29.407Z,1.50
2023-01-28T18:53:58.283Z,1.42
2023-01-28T18:56:25.405Z,1.90
2023-01-28T18:58:58.972Z,2.20
2023-01-28T19:01:26.411Z,1.90
2023-01-28T19:03:54.328Z,1.70
2023-01-28T19:06:21.093Z,2.00
2023-01-28T19:08:55.840Z,2.70
2023-01-28T19:11:23.367Z,2.33
2023-01-28T19:13:50.729Z,1.92
2023-01-28T19:16:17.904Z,2.47
2023-01-28T19:18:44.614Z,2.03
2023-01-28T19:21:11.186Z,1.80
2023-01-28T19:23:49.349Z,1.70
2023-01-28T19:26:20.877Z,1.50
2023-01-28T19:28:49.132Z,1.67
2023-01-28T19:31:16.015Z,1.98
2023-01-28T19:33:42.765Z,1.83
2023-01-28T19:36:10.191Z,1.70
2023-01-28T19:38:37.135Z,1.90
2023-01-28T19:41:05.245Z,1.90
2023-01-28T19:43:32.084Z,2.40
2023-01-28T19:46:00.457Z,2.13
2023-01-28T19:48:27.427Z,2.20
2023-01-28T19:50:54.290Z,2.35
2023-01-28T19:53:21.405Z,2.05
2023-01-28T19:55:49.530Z,1.90
2023-01-28T19:58:18.423Z,2.33
2023-01-28T20:00:45.062Z,2.65
2023-01-28T20:03:12.641Z,2.30
2023-01-28T20:05:39.338Z,1.77
2023-01-28T20:08:06.083Z,2.13
2023-01-28T20:10:32.825Z,1.73
2023-01-28T20:12:59.474Z,1.92
2023-01-28T20:15:26.208Z,2.58
2023-01-28T20:17:52.826Z,1.90
2023-01-28T20:20:19.500Z,1.98
2023-01-28T20:22:46.121Z,2.08
2023-01-28T20:25:13.105Z,2.65
2023-01-28T20:27:39.895Z,2.25
2023-01-28T20:30:07.260Z,2.10
2023-01-28T20:32:34.168Z,2.20
2023-01-28T20:35:00.978Z,2.45
2023-01-28T20:37:29.299Z,3.15
2023-01-28T20:39:56.113Z,2.40
2023-01-28T20:42:23.017Z,3.00
2023-01-28T20:44:50.954Z,2.40
2023-01-28T20:47:17.654Z,2.33
2023-01-28T20:49:44.345Z,1.92
2023-01-28T20:52:12.004Z,2.10
2023-01-28T20:54:38.633Z,2.78
2023-01-28T20:57:05.401Z,2.25
2023-01-28T20:59:32.238Z,2.15
2023-01-28T21:02:00.807Z,2.20
2023-01-28T21:04:27.564Z,2.08
2023-01-28T21:06:54.313Z,2.05
2023-01-28T21:09:22.554Z,2.63
2023-01-28T21:11:49.237Z,2.25
2023-01-28T21:14:16.945Z,2.40
2023-01-28T21:16:44.698Z,2.47
2023-01-28T21:19:11.601Z,2.63
2023-01-28T21:21:42.413Z,2.00
2023-01-28T21:24:09.805Z,2.28
2023-01-28T21:26:37.007Z,2.38
2023-01-28T21:29:04.148Z,2.15
2023-01-28T21:31:30.865Z,2.03
2023-01-28T21:33:58.917Z,1.90
2023-01-28T21:36:26.216Z,1.83
2023-01-28T21:38:57.991Z,2.10
2023-01-28T21:41:25.174Z,2.40
2023-01-28T21:43:53.587Z,2.40
2023-01-28T21:46:21.423Z,2.40
2023-01-28T21:48:48.119Z,2.35
2023-01-28T21:51:33.492Z,2.70
2023-01-28T21:54:00.199Z,2.40
2023-01-28T21:56:27.234Z,2.03
2023-01-28T21:59:12.649Z,2.10
2023-01-28T22:01:39.618Z,2.03
2023-01-28T22:04:06.307Z,2.22
2023-01-28T22:06:33.102Z,2.63
2023-01-28T22:09:01.091Z,2.30
2023-01-28T22:11:28.001Z,2.63
2023-01-28T22:13:54.791Z,2.38
2023-01-28T22:16:21.513Z,2.60
2023-01-28T22:18:50.065Z,2.67
2023-01-28T22:21:16.860Z,2.38
2023-01-28T22:23:43.654Z,2.80
2023-01-28T22:26:11.432Z,2.50
2023-01-28T22:28:38.084Z,2.58
2023-01-28T22:31:10.618Z,2.70
2023-01-28T22:33:37.715Z,3.10
2023-01-28T22:36:06.393Z,2.35
2023-01-28T22:38:33.903Z,2.67
2023-01-28T22:41:05.300Z,2.65
2023-01-28T22:43:31.939Z,2.58
2023-01-28T22:46:00.252Z,2.60
2023-01-28T22:48:27.114Z,2.88
2023-01-28T22:50:53.943Z,2.58
2023-01-28T22:53:21.102Z,2.67
2023-01-28T22:55:51.197Z,2.90
2023-01-28T22:58:17.791Z,2.75
2023-01-28T23:00:44.385Z,3.13
2023-01-28T23:03:10.952Z,2.90
2023-01-28T23:05:37.759Z,2.90
2023-01-28T23:08:10.871Z,2.58
2023-01-28T23:10:39.202Z,3.38
2023-01-28T23:13:07.055Z,3.10
2023-01-28T23:15:52.494Z,2.88
2023-01-28T23:18:53.973Z,2.92
2023-01-28T23:21:44.289Z,2.90
2023-01-28T23:26:56.819Z,2.92
2023-01-28T23:29:25.165Z,3.17
2023-01-28T23:31:54.311Z,2.97
2023-01-28T23:34:21.716Z,2.85
2023-01-28T23:36:48.976Z,3.10
2023-01-28T23:39:15.688Z,3.28
2023-01-28T23:41:42.416Z,3.28
2023-01-28T23:44:09.023Z,3.47
2023-01-28T23:46:39.817Z,3.10
2023-01-28T23:49:08.737Z,2.92
2023-01-28T23:51:35.663Z,3.25
2023-01-28T23:54:02.210Z,2.90
2023-01-28T23:56:28.749Z,3.50
2023-01-28T23:58:57.125Z,3.40
